sensor_id;sensor_type;location;lat;lon;timestamp;P1;durP1;ratioP1;P2;durP2;ratioP2
41099;SDS011;26844;53.686;-6.346;2022-10-17T00:01:07;21.00;;;20.13;;
41099;SDS011;26844;53.686;-6.346;2022-10-17T00:03:33;23.83;;;22.77;;
41099;SDS011;26844;53.686;-6.346;2022-10-17T00:06:03;22.17;;;20.98;;
41099;SDS011;26844;53.686;-6.346;2022-10-17T00:08:28;22.00;;;21.00;;
41099;SDS011;26844;53.686;-6.346;2022-10-17T00:10:54;21.95;;;20.95;;
41099;SDS011;26844;53.686;-6.346;2022-10-17T00:13:20;23.77;;;22.67;;
41099;SDS011;26844;53.686;-6.346;2022-10-17T00:15:45;21.95;;;20.58;;
41099;SDS011;26844;53.686;-6.346;2022-10-17T00:18:10;21.20;;;19.85;;
41099;SDS011;26844;53.686;-6.346;2022-10-17T00:20:36;23.42;;;22.27;;
41099;SDS011;26844;53.686;-6.346;2022-10-17T00:23:01;25.25;;;24.15;;
41099;SDS011;26844;53.686;-6.346;2022-10-17T00:25:26;22.15;;;20.95;;
41099;SDS011;26844;53.686;-6.346;2022-10-17T00:27:51;18.80;;;17.90;;
41099;SDS011;26844;53.686;-6.346;2022-10-17T00:30:17;18.42;;;16.95;;
41099;SDS011;26844;53.686;-6.346;2022-10-17T00:32:42;21.23;;;20.10;;
41099;SDS011;26844;53.686;-6.346;2022-10-17T00:35:07;18.48;;;17.55;;
41099;SDS011;26844;53.686;-6.346;2022-10-17T00:37:33;20.05;;;18.95;;
41099;SDS011;26844;53.686;-6.346;2022-10-17T00:39:58;21.23;;;19.90;;
41099;SDS011;26844;53.686;-6.346;2022-10-17T00:42:24;21.55;;;20.35;;
41099;SDS011;26844;53.686;-6.346;2022-10-17T00:47:16;27.27;;;25.58;;
41099;SDS011;26844;53.686;-6.346;2022-10-17T00:49:42;20.98;;;19.92;;
41099;SDS011;26844;53.686;-6.346;2022-10-17T00:52:12;19.30;;;18.10;;
41099;SDS011;26844;53.686;-6.346;2022-10-17T00:54:40;22.33;;;20.73;;
41099;SDS011;26844;53.686;-6.346;2022-10-17T00:57:08;24.15;;;22.85;;
41099;SDS011;26844;53.686;-6.346;2022-10-17T00:59:33;22.08;;;20.95;;
41099;SDS011;26844;53.686;-6.346;2022-10-17T01:02:01;25.42;;;24.23;;
41099;SDS011;26844;53.686;-6.346;2022-10-17T01:04:27;25.05;;;23.58;;
41099;SDS011;26844;53.686;-6.346;2022-10-17T01:06:52;26.90;;;25.60;;
41099;SDS011;26844;53.686;-6.346;2022-10-17T01:09:18;26.90;;;25.63;;
41099;SDS011;26844;53.686;-6.346;2022-10-17T01:11:57;24.67;;;23.52;;
41099;SDS011;26844;53.686;-6.346;2022-10-17T01:14:27;39.72;;;37.47;;
41099;SDS011;26844;53.686;-6.346;2022-10-17T01:17:06;44.38;;;42.33;;
41099;SDS011;26844;53.686;-6.346;2022-10-17T01:19:37;54.53;;;52.05;;
41099;SDS011;26844;53.686;-6.346;2022-10-17T01:24:48;81.75;;;77.95;;
41099;SDS011;26844;53.686;-6.346;2022-10-17T01:32:39;88.78;;;84.60;;
41099;SDS011;26844;53.686;-6.346;2022-10-17T01:47:18;140.35;;;133.68;;
41099;SDS011;26844;53.686;-6.346;2022-10-17T01:49:44;138.35;;;131.93;;
41099;SDS011;26844;53.686;-6.346;2022-10-17T01:52:12;97.97;;;93.22;;
41099;SDS011;26844;53.686;-6.346;2022-10-17T01:57:05;78.65;;;74.35;;
41099;SDS011;26844;53.686;-6.346;2022-10-17T01:59:41;84.03;;;79.70;;
41099;SDS011;26844;53.686;-6.346;2022-10-17T02:02:08;104.13;;;98.90;;
41099;SDS011;26844;53.686;-6.346;2022-10-17T02:04:34;34.63;;;32.63;;
41099;SDS011;26844;53.686;-6.346;2022-10-17T02:07:09;22.52;;;21.13;;
41099;SDS011;26844;53.686;-6.346;2022-10-17T02:09:35;23.10;;;21.42;;
41099;SDS011;26844;53.686;-6.346;2022-10-17T02:17:04;22.20;;;21.05;;
41099;SDS011;26844;53.686;-6.346;2022-10-17T02:24:57;18.48;;;17.23;;
41099;SDS011;26844;53.686;-6.346;2022-10-17T02:30:12;21.48;;;20.20;;
41099;SDS011;26844;53.686;-6.346;2022-10-17T02:32:43;13.20;;;12.25;;
41099;SDS011;26844;53.686;-6.346;2022-10-17T02:35:12;14.75;;;13.68;;
41099;SDS011;26844;53.686;-6.346;2022-10-17T02:37:38;26.40;;;24.90;;
41099;SDS011;26844;53.686;-6.346;2022-10-17T02:40:04;18.88;;;17.95;;
41099;SDS011;26844;53.686;-6.346;2022-10-17T02:42:31;43.88;;;41.53;;
41099;SDS011;26844;53.686;-6.346;2022-10-17T02:45:00;21.75;;;20.55;;
41099;SDS011;26844;53.686;-6.346;2022-10-17T02:47:35;14.93;;;13.90;;
41099;SDS011;26844;53.686;-6.346;2022-10-17T02:50:03;25.13;;;23.75;;
41099;SDS011;26844;53.686;-6.346;2022-10-17T02:52:33;42.15;;;39.92;;
41099;SDS011;26844;53.686;-6.346;2022-10-17T02:55:07;13.77;;;12.77;;
41099;SDS011;26844;53.686;-6.346;2022-10-17T02:59:59;26.13;;;24.85;;
41099;SDS011;26844;53.686;-6.346;2022-10-17T03:02:25;21.88;;;20.63;;
41099;SDS011;26844;53.686;-6.346;2022-10-17T03:04:51;14.63;;;13.93;;
41099;SDS011;26844;53.686;-6.346;2022-10-17T03:07:16;24.00;;;22.83;;
41099;SDS011;26844;53.686;-6.346;2022-10-17T03:09:41;78.35;;;74.00;;
41099;SDS011;26844;53.686;-6.346;2022-10-17T03:12:06;27.05;;;25.65;;
41099;SDS011;26844;53.686;-6.346;2022-10-17T03:14:32;16.58;;;15.48;;
41099;SDS011;26844;53.686;-6.346;2022-10-17T03:16:57;19.70;;;18.65;;
41099;SDS011;26844;53.686;-6.346;2022-10-17T03:19:22;19.38;;;18.48;;
41099;SDS011;26844;53.686;-6.346;2022-10-17T03:21:47;14.70;;;14.00;;
41099;SDS011;26844;53.686;-6.346;2022-10-17T03:24:13;24.20;;;22.63;;
41099;SDS011;26844;53.686;-6.346;2022-10-17T03:26:38;32.47;;;30.77;;
41099;SDS011;26844;53.686;-6.346;2022-10-17T03:29:03;124.68;;;105.38;;
41099;SDS011;26844;53.686;-6.346;2022-10-17T03:31:28;111.70;;;101.28;;
41099;SDS011;26844;53.686;-6.346;2022-10-17T03:33:54;46.40;;;43.97;;
41099;SDS011;26844;53.686;-6.346;2022-10-17T03:36:19;29.70;;;28.25;;
41099;SDS011;26844;53.686;-6.346;2022-10-17T03:38:45;99.32;;;93.95;;
41099;SDS011;26844;53.686;-6.346;2022-10-17T03:41:10;32.42;;;30.70;;
41099;SDS011;26844;53.686;-6.346;2022-10-17T03:43:36;113.43;;;106.82;;
41099;SDS011;26844;53.686;-6.346;2022-10-17T03:46:01;127.07;;;119.45;;
41099;SDS011;26844;53.686;-6.346;2022-10-17T03:48:27;71.53;;;68.03;;
41099;SDS011;26844;53.686;-6.346;2022-10-17T03:51:03;62.83;;;59.78;;
41099;SDS011;26844;53.686;-6.346;2022-10-17T03:53:29;128.20;;;121.00;;
41099;SDS011;26844;53.686;-6.346;2022-10-17T03:55:54;42.97;;;40.92;;
41099;SDS011;26844;53.686;-6.346;2022-10-17T03:58:19;41.20;;;39.25;;
41099;SDS011;26844;53.686;-6.346;2022-10-17T04:00:45;62.13;;;58.80;;
41099;SDS011;26844;53.686;-6.346;2022-10-17T04:03:10;126.05;;;119.18;;
41099;SDS011;26844;53.686;-6.346;2022-10-17T04:05:35;55.80;;;53.00;;
41099;SDS011;26844;53.686;-6.346;2022-10-17T04:08:00;42.05;;;40.20;;
41099;SDS011;26844;53.686;-6.346;2022-10-17T04:10:26;59.65;;;56.97;;
41099;SDS011;26844;53.686;-6.346;2022-10-17T04:12:51;45.30;;;43.25;;
41099;SDS011;26844;53.686;-6.346;2022-10-17T04:15:16;33.80;;;31.92;;
41099;SDS011;26844;53.686;-6.346;2022-10-17T04:17:42;39.13;;;37.20;;
41099;SDS011;26844;53.686;-6.346;2022-10-17T04:20:07;43.47;;;41.13;;
41099;SDS011;26844;53.686;-6.346;2022-10-17T04:22:32;24.70;;;23.55;;
41099;SDS011;26844;53.686;-6.346;2022-10-17T04:24:58;106.03;;;98.40;;
41099;SDS011;26844;53.686;-6.346;2022-10-17T04:27:23;68.53;;;65.00;;
41099;SDS011;26844;53.686;-6.346;2022-10-17T04:29:48;77.32;;;73.50;;
41099;SDS011;26844;53.686;-6.346;2022-10-17T04:32:13;38.25;;;36.35;;
41099;SDS011;26844;53.686;-6.346;2022-10-17T04:34:42;50.95;;;48.55;;
41099;SDS011;26844;53.686;-6.346;2022-10-17T04:37:07;220.90;;;203.20;;
41099;SDS011;26844;53.686;-6.346;2022-10-17T04:39:32;67.60;;;64.05;;
41099;SDS011;26844;53.686;-6.346;2022-10-17T04:41:57;55.85;;;53.17;;
41099;SDS011;26844;53.686;-6.346;2022-10-17T04:44:22;50.90;;;48.45;;
41099;SDS011;26844;53.686;-6.346;2022-10-17T04:46:48;97.07;;;91.63;;
41099;SDS011;26844;53.686;-6.346;2022-10-17T04:49:13;105.20;;;99.30;;
41099;SDS011;26844;53.686;-6.346;2022-10-17T04:51:38;119.82;;;113.03;;
41099;SDS011;26844;53.686;-6.346;2022-10-17T04:54:04;52.53;;;49.80;;
41099;SDS011;26844;53.686;-6.346;2022-10-17T04:56:29;24.55;;;23.35;;
41099;SDS011;26844;53.686;-6.346;2022-10-17T04:58:54;26.02;;;24.75;;
41099;SDS011;26844;53.686;-6.346;2022-10-17T05:01:20;63.40;;;60.30;;
41099;SDS011;26844;53.686;-6.346;2022-10-17T05:03:46;61.60;;;58.53;;
41099;SDS011;26844;53.686;-6.346;2022-10-17T05:06:13;64.75;;;61.58;;
41099;SDS011;26844;53.686;-6.346;2022-10-17T05:08:39;58.67;;;55.67;;
41099;SDS011;26844;53.686;-6.346;2022-10-17T05:11:04;84.72;;;80.57;;
41099;SDS011;26844;53.686;-6.346;2022-10-17T05:13:30;129.95;;;122.53;;
41099;SDS011;26844;53.686;-6.346;2022-10-17T05:15:59;201.40;;;188.50;;
41099;SDS011;26844;53.686;-6.346;2022-10-17T05:18:24;114.65;;;107.22;;
41099;SDS011;26844;53.686;-6.346;2022-10-17T05:20:50;131.55;;;123.35;;
41099;SDS011;26844;53.686;-6.346;2022-10-17T05:23:15;87.20;;;82.97;;
41099;SDS011;26844;53.686;-6.346;2022-10-17T05:25:40;78.15;;;74.40;;
41099;SDS011;26844;53.686;-6.346;2022-10-17T05:28:05;27.08;;;25.92;;
41099;SDS011;26844;53.686;-6.346;2022-10-17T05:30:31;68.45;;;65.25;;
41099;SDS011;26844;53.686;-6.346;2022-10-17T05:32:56;178.93;;;161.77;;
41099;SDS011;26844;53.686;-6.346;2022-10-17T05:35:21;76.80;;;72.82;;
41099;SDS011;26844;53.686;-6.346;2022-10-17T05:37:46;85.00;;;80.18;;
41099;SDS011;26844;53.686;-6.346;2022-10-17T05:40:12;128.00;;;117.10;;
41099;SDS011;26844;53.686;-6.346;2022-10-17T05:42:37;90.78;;;85.68;;
41099;SDS011;26844;53.686;-6.346;2022-10-17T05:45:03;26.35;;;25.05;;
41099;SDS011;26844;53.686;-6.346;2022-10-17T05:47:28;62.55;;;59.67;;
41099;SDS011;26844;53.686;-6.346;2022-10-17T05:49:53;61.83;;;58.90;;
41099;SDS011;26844;53.686;-6.346;2022-10-17T05:52:19;183.23;;;140.00;;
41099;SDS011;26844;53.686;-6.346;2022-10-17T05:54:44;41.40;;;39.40;;
41099;SDS011;26844;53.686;-6.346;2022-10-17T05:57:09;70.90;;;67.55;;
41099;SDS011;26844;53.686;-6.346;2022-10-17T05:59:34;46.78;;;44.25;;
41099;SDS011;26844;53.686;-6.346;2022-10-17T06:01:59;46.72;;;44.45;;
41099;SDS011;26844;53.686;-6.346;2022-10-17T06:04:25;74.03;;;69.65;;
41099;SDS011;26844;53.686;-6.346;2022-10-17T06:06:52;140.90;;;132.13;;
41099;SDS011;26844;53.686;-6.346;2022-10-17T06:09:17;61.35;;;58.45;;
41099;SDS011;26844;53.686;-6.346;2022-10-17T06:11:42;62.25;;;59.42;;
41099;SDS011;26844;53.686;-6.346;2022-10-17T06:14:07;84.60;;;80.13;;
41099;SDS011;26844;53.686;-6.346;2022-10-17T06:16:33;44.08;;;41.85;;
41099;SDS011;26844;53.686;-6.346;2022-10-17T06:18:58;97.47;;;91.93;;
41099;SDS011;26844;53.686;-6.346;2022-10-17T06:21:24;55.05;;;52.42;;
41099;SDS011;26844;53.686;-6.346;2022-10-17T06:23:49;102.90;;;96.85;;
41099;SDS011;26844;53.686;-6.346;2022-10-17T06:26:15;45.17;;;43.05;;
41099;SDS011;26844;53.686;-6.346;2022-10-17T06:28:40;84.85;;;80.50;;
41099;SDS011;26844;53.686;-6.346;2022-10-17T06:31:06;47.92;;;45.65;;
41099;SDS011;26844;53.686;-6.346;2022-10-17T06:33:32;36.92;;;35.20;;
41099;SDS011;26844;53.686;-6.346;2022-10-17T06:35:57;87.57;;;82.80;;
41099;SDS011;26844;53.686;-6.346;2022-10-17T06:38:22;61.90;;;58.85;;
41099;SDS011;26844;53.686;-6.346;2022-10-17T06:40:48;68.82;;;65.50;;
41099;SDS011;26844;53.686;-6.346;2022-10-17T06:43:13;110.65;;;105.00;;
41099;SDS011;26844;53.686;-6.346;2022-10-17T06:45:39;42.63;;;40.67;;
41099;SDS011;26844;53.686;-6.346;2022-10-17T06:48:04;167.38;;;158.07;;
41099;SDS011;26844;53.686;-6.346;2022-10-17T06:50:29;111.80;;;102.78;;
41099;SDS011;26844;53.686;-6.346;2022-10-17T06:52:55;42.13;;;40.28;;
41099;SDS011;26844;53.686;-6.346;2022-10-17T06:55:20;70.20;;;66.55;;
41099;SDS011;26844;53.686;-6.346;2022-10-17T06:57:45;58.53;;;55.70;;
41099;SDS011;26844;53.686;-6.346;2022-10-17T07:00:11;60.80;;;57.72;;
41099;SDS011;26844;53.686;-6.346;2022-10-17T07:02:36;57.72;;;55.13;;
41099;SDS011;26844;53.686;-6.346;2022-10-17T07:05:01;28.90;;;27.52;;
41099;SDS011;26844;53.686;-6.346;2022-10-17T07:07:29;126.93;;;119.68;;
41099;SDS011;26844;53.686;-6.346;2022-10-17T07:09:54;181.10;;;162.95;;
41099;SDS011;26844;53.686;-6.346;2022-10-17T07:12:20;103.45;;;98.05;;
41099;SDS011;26844;53.686;-6.346;2022-10-17T07:14:45;58.47;;;55.78;;
41099;SDS011;26844;53.686;-6.346;2022-10-17T07:17:11;103.80;;;97.55;;
41099;SDS011;26844;53.686;-6.346;2022-10-17T07:19:37;54.75;;;52.00;;
41099;SDS011;26844;53.686;-6.346;2022-10-17T07:22:02;43.03;;;40.85;;
41099;SDS011;26844;53.686;-6.346;2022-10-17T07:24:28;43.58;;;41.67;;
41099;SDS011;26844;53.686;-6.346;2022-10-17T07:26:53;27.25;;;25.85;;
41099;SDS011;26844;53.686;-6.346;2022-10-17T07:29:18;37.88;;;36.15;;
41099;SDS011;26844;53.686;-6.346;2022-10-17T07:31:43;54.35;;;51.88;;
41099;SDS011;26844;53.686;-6.346;2022-10-17T07:34:12;106.90;;;101.03;;
41099;SDS011;26844;53.686;-6.346;2022-10-17T07:36:37;45.67;;;43.63;;
41099;SDS011;26844;53.686;-6.346;2022-10-17T07:39:03;97.63;;;92.85;;
41099;SDS011;26844;53.686;-6.346;2022-10-17T07:41:28;47.30;;;45.20;;
41099;SDS011;26844;53.686;-6.346;2022-10-17T07:43:54;100.47;;;95.10;;
41099;SDS011;26844;53.686;-6.346;2022-10-17T07:46:19;67.78;;;64.47;;
41099;SDS011;26844;53.686;-6.346;2022-10-17T07:48:44;40.80;;;38.97;;
41099;SDS011;26844;53.686;-6.346;2022-10-17T07:51:10;67.93;;;64.75;;
41099;SDS011;26844;53.686;-6.346;2022-10-17T07:53:36;57.38;;;54.53;;
41099;SDS011;26844;53.686;-6.346;2022-10-17T07:56:05;58.55;;;55.65;;
41099;SDS011;26844;53.686;-6.346;2022-10-17T07:58:30;104.38;;;98.45;;
41099;SDS011;26844;53.686;-6.346;2022-10-17T08:00:59;42.25;;;40.10;;
41099;SDS011;26844;53.686;-6.346;2022-10-17T08:03:24;109.35;;;103.10;;
41099;SDS011;26844;53.686;-6.346;2022-10-17T08:05:49;67.18;;;63.95;;
41099;SDS011;26844;53.686;-6.346;2022-10-17T08:08:15;60.83;;;58.03;;
41099;SDS011;26844;53.686;-6.346;2022-10-17T08:10:40;60.72;;;58.03;;
41099;SDS011;26844;53.686;-6.346;2022-10-17T08:13:05;44.50;;;42.50;;
41099;SDS011;26844;53.686;-6.346;2022-10-17T08:15:30;78.38;;;74.30;;
41099;SDS011;26844;53.686;-6.346;2022-10-17T08:17:56;83.32;;;79.13;;
41099;SDS011;26844;53.686;-6.346;2022-10-17T08:20:22;95.10;;;90.30;;
41099;SDS011;26844;53.686;-6.346;2022-10-17T08:22:51;205.27;;;189.88;;
41099;SDS011;26844;53.686;-6.346;2022-10-17T08:25:16;81.35;;;77.65;;
41099;SDS011;26844;53.686;-6.346;2022-10-17T08:27:41;59.33;;;56.67;;
41099;SDS011;26844;53.686;-6.346;2022-10-17T08:30:07;40.05;;;38.20;;
41099;SDS011;26844;53.686;-6.346;2022-10-17T08:32:32;72.93;;;69.32;;
41099;SDS011;26844;53.686;-6.346;2022-10-17T08:34:57;70.63;;;67.13;;
41099;SDS011;26844;53.686;-6.346;2022-10-17T08:37:23;94.32;;;89.60;;
41099;SDS011;26844;53.686;-6.346;2022-10-17T08:39:48;61.88;;;58.83;;
41099;SDS011;26844;53.686;-6.346;2022-10-17T08:47:38;95.47;;;90.47;;
41099;SDS011;26844;53.686;-6.346;2022-10-17T08:50:06;124.95;;;118.68;;
41099;SDS011;26844;53.686;-6.346;2022-10-17T08:52:36;79.20;;;75.55;;
41099;SDS011;26844;53.686;-6.346;2022-10-17T08:55:03;102.07;;;97.07;;
41099;SDS011;26844;53.686;-6.346;2022-10-17T08:57:28;146.68;;;139.02;;
41099;SDS011;26844;53.686;-6.346;2022-10-17T08:59:54;108.40;;;103.15;;
41099;SDS011;26844;53.686;-6.346;2022-10-17T09:02:39;77.68;;;73.90;;
41099;SDS011;26844;53.686;-6.346;2022-10-17T09:10:28;46.08;;;43.53;;
41099;SDS011;26844;53.686;-6.346;2022-10-17T09:17:59;75.85;;;72.43;;
41099;SDS011;26844;53.686;-6.346;2022-10-17T09:20:48;88.32;;;84.10;;
41099;SDS011;26844;53.686;-6.346;2022-10-17T09:23:12;134.07;;;127.07;;
41099;SDS011;26844;53.686;-6.346;2022-10-17T09:25:49;119.78;;;113.93;;
41099;SDS011;26844;53.686;-6.346;2022-10-17T09:28:27;226.57;;;213.20;;
41099;SDS011;26844;53.686;-6.346;2022-10-17T09:30:55;97.28;;;91.65;;
41099;SDS011;26844;53.686;-6.346;2022-10-17T09:33:25;94.82;;;90.65;;
41099;SDS011;26844;53.686;-6.346;2022-10-17T09:35:52;85.75;;;81.50;;
41099;SDS011;26844;53.686;-6.346;2022-10-17T09:38:19;89.72;;;85.50;;
41099;SDS011;26844;53.686;-6.346;2022-10-17T09:40:45;202.05;;;188.98;;
41099;SDS011;26844;53.686;-6.346;2022-10-17T09:43:13;106.20;;;101.03;;
41099;SDS011;26844;53.686;-6.346;2022-10-17T09:45:47;75.35;;;71.78;;
41099;SDS011;26844;53.686;-6.346;2022-10-17T09:48:22;115.38;;;109.40;;
41099;SDS011;26844;53.686;-6.346;2022-10-17T09:50:50;212.40;;;198.98;;
41099;SDS011;26844;53.686;-6.346;2022-10-17T09:53:23;93.25;;;88.72;;
41099;SDS011;26844;53.686;-6.346;2022-10-17T09:55:53;81.20;;;77.40;;
41099;SDS011;26844;53.686;-6.346;2022-10-17T09:58:20;88.72;;;84.57;;
41099;SDS011;26844;53.686;-6.346;2022-10-17T10:00:46;107.45;;;102.10;;
41099;SDS011;26844;53.686;-6.346;2022-10-17T10:05:38;177.85;;;168.55;;
41099;SDS011;26844;53.686;-6.346;2022-10-17T10:08:04;152.45;;;143.98;;
41099;SDS011;26844;53.686;-6.346;2022-10-17T10:10:30;246.77;;;229.70;;
41099;SDS011;26844;53.686;-6.346;2022-10-17T10:15:31;99.50;;;94.90;;
41099;SDS011;26844;53.686;-6.346;2022-10-17T10:17:57;184.60;;;173.40;;
41099;SDS011;26844;53.686;-6.346;2022-10-17T10:20:24;152.82;;;144.52;;
41099;SDS011;26844;53.686;-6.346;2022-10-17T10:23:08;105.60;;;100.40;;
41099;SDS011;26844;53.686;-6.346;2022-10-17T10:25:34;128.57;;;122.13;;
41099;SDS011;26844;53.686;-6.346;2022-10-17T10:28:00;356.38;;;325.42;;
41099;SDS011;26844;53.686;-6.346;2022-10-17T10:30:29;233.35;;;216.85;;
41099;SDS011;26844;53.686;-6.346;2022-10-17T10:32:55;143.23;;;134.25;;
41099;SDS011;26844;53.686;-6.346;2022-10-17T10:35:29;222.88;;;208.43;;
41099;SDS011;26844;53.686;-6.346;2022-10-17T10:37:55;257.60;;;239.30;;
41099;SDS011;26844;53.686;-6.346;2022-10-17T10:40:22;226.57;;;211.43;;
41099;SDS011;26844;53.686;-6.346;2022-10-17T10:42:54;138.98;;;131.75;;
41099;SDS011;26844;53.686;-6.346;2022-10-17T10:47:49;145.82;;;136.93;;
41099;SDS011;26844;53.686;-6.346;2022-10-17T10:55:42;154.88;;;144.90;;
41099;SDS011;26844;53.686;-6.346;2022-10-17T11:00:53;390.58;;;359.67;;
41099;SDS011;26844;53.686;-6.346;2022-10-17T11:03:27;315.83;;;291.38;;
41099;SDS011;26844;53.686;-6.346;2022-10-17T11:05:59;51.97;;;49.60;;
41099;SDS011;26844;53.686;-6.346;2022-10-17T11:08:33;434.75;;;398.58;;
41099;SDS011;26844;53.686;-6.346;2022-10-17T11:11:06;69.38;;;66.13;;
41099;SDS011;26844;53.686;-6.346;2022-10-17T11:13:42;287.25;;;265.23;;
41099;SDS011;26844;53.686;-6.346;2022-10-17T11:18:59;447.55;;;403.80;;
41099;SDS011;26844;53.686;-6.346;2022-10-17T11:24:02;395.88;;;358.77;;
41099;SDS011;26844;53.686;-6.346;2022-10-17T11:26:31;92.97;;;87.97;;
41099;SDS011;26844;53.686;-6.346;2022-10-17T11:28:58;50.60;;;48.22;;
41099;SDS011;26844;53.686;-6.346;2022-10-17T11:31:27;333.20;;;307.38;;
41099;SDS011;26844;53.686;-6.346;2022-10-17T11:34:02;200.95;;;187.15;;
41099;SDS011;26844;53.686;-6.346;2022-10-17T11:36:29;226.32;;;210.90;;
41099;SDS011;26844;53.686;-6.346;2022-10-17T11:41:26;465.52;;;425.60;;
41099;SDS011;26844;53.686;-6.346;2022-10-17T11:43:56;131.48;;;123.70;;
41099;SDS011;26844;53.686;-6.346;2022-10-17T11:46:24;173.45;;;162.18;;
41099;SDS011;26844;53.686;-6.346;2022-10-17T11:51:53;143.23;;;135.35;;
41099;SDS011;26844;53.686;-6.346;2022-10-17T11:54:29;89.97;;;85.13;;
41099;SDS011;26844;53.686;-6.346;2022-10-17T12:04:59;703.30;;;589.63;;
41099;SDS011;26844;53.686;-6.346;2022-10-17T12:10:15;266.27;;;246.40;;
41099;SDS011;26844;53.686;-6.346;2022-10-17T12:12:42;124.63;;;117.72;;
41099;SDS011;26844;53.686;-6.346;2022-10-17T12:17:36;138.98;;;129.05;;
41099;SDS011;26844;53.686;-6.346;2022-10-17T12:22:52;213.40;;;198.35;;
41099;SDS011;26844;53.686;-6.346;2022-10-17T12:25:21;635.03;;;563.38;;
41099;SDS011;26844;53.686;-6.346;2022-10-17T12:27:48;718.25;;;600.90;;
41099;SDS011;26844;53.686;-6.346;2022-10-17T12:35:37;183.02;;;170.02;;
41099;SDS011;26844;53.686;-6.346;2022-10-17T12:38:24;319.27;;;298.73;;
41099;SDS011;26844;53.686;-6.346;2022-10-17T12:40:51;155.75;;;147.52;;
41099;SDS011;26844;53.686;-6.346;2022-10-17T12:48:11;122.40;;;115.88;;
41099;SDS011;26844;53.686;-6.346;2022-10-17T12:53:22;142.10;;;135.27;;
41099;SDS011;26844;53.686;-6.346;2022-10-17T12:55:49;553.15;;;500.55;;
41099;SDS011;26844;53.686;-6.346;2022-10-17T12:58:22;69.50;;;66.25;;
41099;SDS011;26844;53.686;-6.346;2022-10-17T13:03:14;284.63;;;264.17;;
41099;SDS011;26844;53.686;-6.346;2022-10-17T13:05:50;128.77;;;122.22;;
41099;SDS011;26844;53.686;-6.346;2022-10-17T13:08:17;134.85;;;128.25;;
41099;SDS011;26844;53.686;-6.346;2022-10-17T13:10:44;336.80;;;313.05;;
41099;SDS011;26844;53.686;-6.346;2022-10-17T13:13:22;157.25;;;148.93;;
41099;SDS011;26844;53.686;-6.346;2022-10-17T13:15:48;104.32;;;98.60;;
41099;SDS011;26844;53.686;-6.346;2022-10-17T13:18:18;278.88;;;259.67;;
41099;SDS011;26844;53.686;-6.346;2022-10-17T13:20:52;184.70;;;174.73;;
41099;SDS011;26844;53.686;-6.346;2022-10-17T13:23:24;361.10;;;332.33;;
41099;SDS011;26844;53.686;-6.346;2022-10-17T13:26:05;201.15;;;190.02;;
41099;SDS011;26844;53.686;-6.346;2022-10-17T13:28:31;437.25;;;400.83;;
41099;SDS011;26844;53.686;-6.346;2022-10-17T13:30:56;239.65;;;225.88;;
41099;SDS011;26844;53.686;-6.346;2022-10-17T13:33:32;305.80;;;286.15;;
41099;SDS011;26844;53.686;-6.346;2022-10-17T13:35:58;237.38;;;223.95;;
41099;SDS011;26844;53.686;-6.346;2022-10-17T13:38:28;186.63;;;175.48;;
41099;SDS011;26844;53.686;-6.346;2022-10-17T13:40:56;335.63;;;309.95;;
41099;SDS011;26844;53.686;-6.346;2022-10-17T13:43:21;237.30;;;220.20;;
41099;SDS011;26844;53.686;-6.346;2022-10-17T13:45:51;151.20;;;142.90;;
41099;SDS011;26844;53.686;-6.346;2022-10-17T13:48:17;353.95;;;325.30;;
41099;SDS011;26844;53.686;-6.346;2022-10-17T13:50:44;420.92;;;387.10;;
41099;SDS011;26844;53.686;-6.346;2022-10-17T13:55:36;530.28;;;482.10;;
41099;SDS011;26844;53.686;-6.346;2022-10-17T13:58:14;194.05;;;183.13;;
41099;SDS011;26844;53.686;-6.346;2022-10-17T14:00:40;482.75;;;442.40;;
41099;SDS011;26844;53.686;-6.346;2022-10-17T14:03:06;428.63;;;393.92;;
41099;SDS011;26844;53.686;-6.346;2022-10-17T14:05:31;146.10;;;139.13;;
41099;SDS011;26844;53.686;-6.346;2022-10-17T14:08:00;211.00;;;199.40;;
41099;SDS011;26844;53.686;-6.346;2022-10-17T14:12:55;376.77;;;349.45;;
41099;SDS011;26844;53.686;-6.346;2022-10-17T14:15:21;484.88;;;438.92;;
41099;SDS011;26844;53.686;-6.346;2022-10-17T14:17:53;334.80;;;311.50;;
41099;SDS011;26844;53.686;-6.346;2022-10-17T14:20:19;407.13;;;375.65;;
41099;SDS011;26844;53.686;-6.346;2022-10-17T14:22:45;456.33;;;411.48;;
41099;SDS011;26844;53.686;-6.346;2022-10-17T14:25:26;254.05;;;239.10;;
41099;SDS011;26844;53.686;-6.346;2022-10-17T14:27:55;320.45;;;297.48;;
41099;SDS011;26844;53.686;-6.346;2022-10-17T14:30:31;436.55;;;398.92;;
41099;SDS011;26844;53.686;-6.346;2022-10-17T14:32:58;372.83;;;343.13;;
41099;SDS011;26844;53.686;-6.346;2022-10-17T14:35:25;308.75;;;288.20;;
41099;SDS011;26844;53.686;-6.346;2022-10-17T14:37:51;231.90;;;216.80;;
41099;SDS011;26844;53.686;-6.346;2022-10-17T14:40:20;494.60;;;451.23;;
41099;SDS011;26844;53.686;-6.346;2022-10-17T14:42:47;169.27;;;160.65;;
41099;SDS011;26844;53.686;-6.346;2022-10-17T14:45:14;297.33;;;275.27;;
41099;SDS011;26844;53.686;-6.346;2022-10-17T14:47:41;209.82;;;198.23;;
41099;SDS011;26844;53.686;-6.346;2022-10-17T14:50:19;254.13;;;239.10;;
41099;SDS011;26844;53.686;-6.346;2022-10-17T14:53:00;270.33;;;254.32;;
41099;SDS011;26844;53.686;-6.346;2022-10-17T14:55:27;361.42;;;334.70;;
41099;SDS011;26844;53.686;-6.346;2022-10-17T14:57:53;194.20;;;183.90;;
41099;SDS011;26844;53.686;-6.346;2022-10-17T15:00:19;284.35;;;266.15;;
41099;SDS011;26844;53.686;-6.346;2022-10-17T15:02:45;116.32;;;110.60;;
41099;SDS011;26844;53.686;-6.346;2022-10-17T15:05:11;80.85;;;76.90;;
41099;SDS011;26844;53.686;-6.346;2022-10-17T15:07:37;164.75;;;156.50;;
41099;SDS011;26844;53.686;-6.346;2022-10-17T15:10:02;136.90;;;129.85;;
41099;SDS011;26844;53.686;-6.346;2022-10-17T15:12:28;146.43;;;139.23;;
41099;SDS011;26844;53.686;-6.346;2022-10-17T15:14:53;205.57;;;194.80;;
41099;SDS011;26844;53.686;-6.346;2022-10-17T15:19:50;144.68;;;136.23;;
41099;SDS011;26844;53.686;-6.346;2022-10-17T15:22:15;71.03;;;67.60;;
41099;SDS011;26844;53.686;-6.346;2022-10-17T15:24:42;19.23;;;18.42;;
41099;SDS011;26844;53.686;-6.346;2022-10-17T15:27:40;128.38;;;121.95;;
41099;SDS011;26844;53.686;-6.346;2022-10-17T15:29:58;191.45;;;181.38;;
41099;SDS011;26844;53.686;-6.346;2022-10-17T15:32:24;119.85;;;113.75;;
41099;SDS011;26844;53.686;-6.346;2022-10-17T15:34:49;221.65;;;207.88;;
41099;SDS011;26844;53.686;-6.346;2022-10-17T15:37:18;240.25;;;226.73;;
41099;SDS011;26844;53.686;-6.346;2022-10-17T15:39:46;213.43;;;202.00;;
41099;SDS011;26844;53.686;-6.346;2022-10-17T15:42:16;131.30;;;124.75;;
41099;SDS011;26844;53.686;-6.346;2022-10-17T15:44:42;210.25;;;198.85;;
41099;SDS011;26844;53.686;-6.346;2022-10-17T15:47:10;90.07;;;85.50;;
41099;SDS011;26844;53.686;-6.346;2022-10-17T15:49:36;123.00;;;116.90;;
41099;SDS011;26844;53.686;-6.346;2022-10-17T15:52:01;172.82;;;163.32;;
41099;SDS011;26844;53.686;-6.346;2022-10-17T15:54:26;184.27;;;174.00;;
41099;SDS011;26844;53.686;-6.346;2022-10-17T15:56:52;126.63;;;120.28;;
41099;SDS011;26844;53.686;-6.346;2022-10-17T15:59:19;125.72;;;119.45;;
41099;SDS011;26844;53.686;-6.346;2022-10-17T16:01:45;22.05;;;21.13;;